Time;durP1;ratioP1;P1;durP2;ratioP2;P2;SDS_P1;SDS_P2;PMS_P1;PMS_P2;Temp;Humidity;BMP_temperature;BMP_pressure;BME280_temperature;BME280_humidity;BME280_pressure;Samples;Min_cycle;Max_cycle;Signal;HPM_P1;HPM_P2
2022/10/20 00:01:20;;;;;;;15.43;9.27;;;17.30;73.10;;;;;;4922005;28;20248;-90
2022/10/20 00:03:48;;;;;;;17.10;10.07;;;17.30;72.40;;;;;;4928915;28;20207;-88
2022/10/20 00:06:20;;;;;;;16.17;9.83;;;17.30;72.50;;;;;;4929307;29;20785;-89
2022/10/20 00:08:48;;;;;;;14.80;9.73;;;17.20;73.00;;;;;;4915379;28;20201;-90
2022/10/20 00:11:17;;;;;;;19.40;10.30;;;17.20;72.70;;;;;;4921661;29;20273;-89
2022/10/20 00:13:48;;;;;;;18.27;9.50;;;17.20;73.00;;;;;;4932876;28;20197;-89
2022/10/20 00:16:16;;;;;;;20.47;10.77;;;17.20;73.20;;;;;;4928808;29;20211;-89
2022/10/20 00:18:44;;;;;;;17.60;10.00;;;17.20;73.10;;;;;;4919241;29;20214;-90
2022/10/20 00:21:15;;;;;;;15.50;9.17;;;17.10;73.10;;;;;;4915361;29;20203;-89
2022/10/20 00:23:43;;;;;;;15.53;10.13;;;17.20;73.50;;;;;;4931066;29;20210;-91
2022/10/20 00:26:13;;;;;;;18.60;9.77;;;17.10;73.20;;;;;;4927103;28;20214;-89
2022/10/20 00:28:45;;;;;;;16.30;9.57;;;17.10;73.60;;;;;;4921297;28;20246;-90
2022/10/20 00:31:13;;;;;;;15.70;9.90;;;17.10;73.80;;;;;;4929737;28;20298;-88
2022/10/20 00:33:42;;;;;;;16.27;9.63;;;17.10;73.90;;;;;;4930737;28;20734;-90
2022/10/20 00:36:14;;;;;;;11.37;7.93;;;17.10;73.90;;;;;;4934368;28;21048;-90
2022/10/20 00:38:43;;;;;;;19.37;9.80;;;17.10;74.40;;;;;;4932189;29;20276;-91
2022/10/20 00:41:15;;;;;;;19.13;10.67;;;17.00;74.30;;;;;;4928456;29;20214;-90
2022/10/20 00:43:46;;;;;;;17.33;9.60;;;17.10;74.40;;;;;;4926641;28;20214;-91
2022/10/20 00:46:16;;;;;;;16.73;9.57;;;17.00;74.60;;;;;;4929826;29;20255;-89
2022/10/20 00:48:47;;;;;;;15.00;9.67;;;17.00;74.70;;;;;;4931783;28;20275;-88
2022/10/20 00:51:17;;;;;;;17.60;9.33;;;17.00;75.10;;;;;;4931371;28;20723;-89
2022/10/20 00:53:46;;;;;;;14.53;9.47;;;17.00;74.90;;;;;;4931094;29;20235;-90
2022/10/20 00:56:17;;;;;;;18.67;10.50;;;17.00;75.10;;;;;;4929468;29;20930;-90
2022/10/20 00:58:46;;;;;;;15.63;9.33;;;17.00;75.20;;;;;;4930115;29;20787;-91
2022/10/20 01:01:14;;;;;;;14.40;9.57;;;17.00;75.10;;;;;;4927551;29;20672;-88
2022/10/20 01:03:49;;;;;;;16.87;10.27;;;17.00;75.30;;;;;;4930410;28;20241;-89
2022/10/20 01:06:19;;;;;;;18.03;10.43;;;17.00;76.10;;;;;;4925870;29;20303;-89
2022/10/20 01:08:48;;;;;;;17.70;10.60;;;17.00;75.70;;;;;;4931307;28;20264;-90
2022/10/20 01:11:27;;;;;;;20.27;10.47;;;17.00;75.80;;;;;;4929149;28;20270;-90
2022/10/20 01:14:12;;;;;;;13.47;9.20;;;17.00;76.50;;;;;;4930651;29;20635;-90
2022/10/20 01:16:47;;;;;;;21.70;10.67;;;17.00;76.50;;;;;;4928333;29;20612;-90
2022/10/20 01:19:54;;;;;;;13.93;8.87;;;17.00;76.10;;;;;;4929738;28;20217;-90
2022/10/20 01:22:32;;;;;;;17.83;10.23;;;17.00;76.80;;;;;;4928853;28;20200;-89
2022/10/20 01:25:22;;;;;;;18.50;10.67;;;17.00;76.50;;;;;;4917776;29;20665;-89
2022/10/20 01:27:53;;;;;;;17.20;9.60;;;17.00;76.90;;;;;;4927784;28;20277;-90
2022/10/20 01:30:22;;;;;;;12.67;9.37;;;17.00;76.10;;;;;;4921930;28;20703;-90
2022/10/20 01:33:05;;;;;;;16.37;9.47;;;17.00;76.30;;;;;;4937191;28;20742;-91
2022/10/20 01:35:40;;;;;;;22.80;11.07;;;17.00;76.70;;;;;;4934016;28;20215;-92
2022/10/20 01:38:18;;;;;;;20.97;11.13;;;17.00;76.90;;;;;;4926793;28;20255;-91
2022/10/20 01:40:52;;;;;;;19.97;10.67;;;17.00;76.80;;;;;;4935824;28;20213;-93
2022/10/20 01:43:23;;;;;;;17.60;9.97;;;17.00;76.50;;;;;;4917399;28;20256;-92
2022/10/20 01:45:52;;;;;;;16.70;9.00;;;17.00;76.60;;;;;;4923045;29;20322;-91
2022/10/20 01:48:26;;;;;;;22.20;11.37;;;17.00;76.50;;;;;;4936338;28;20300;-93
2022/10/20 01:50:54;;;;;;;15.67;8.87;;;17.00;76.70;;;;;;4936823;29;20303;-89
2022/10/20 01:53:21;;;;;;;15.50;9.77;;;17.00;76.50;;;;;;4932647;29;20258;-90
2022/10/20 01:55:51;;;;;;;15.10;9.37;;;17.00;76.50;;;;;;4923520;28;20733;-91
2022/10/20 01:58:55;;;;;;;24.47;11.93;;;17.00;77.00;;;;;;4926188;28;20223;-89
2022/10/20 02:01:32;;;;;;;19.43;9.47;;;16.90;77.60;;;;;;4934135;28;20205;-88
2022/10/20 02:04:04;;;;;;;16.97;10.43;;;17.00;77.20;;;;;;4932643;28;20232;-90
2022/10/20 02:06:44;;;;;;;16.80;10.77;;;17.00;76.90;;;;;;4933509;28;20209;-89
2022/10/20 02:09:17;;;;;;;17.83;10.73;;;17.00;77.20;;;;;;4926690;28;20204;-89
2022/10/20 02:11:52;;;;;;;19.80;10.67;;;16.90;77.20;;;;;;4918776;28;20685;-90
2022/10/20 02:14:22;;;;;;;22.93;11.40;;;16.90;77.30;;;;;;4932912;28;20752;-87
2022/10/20 02:16:53;;;;;;;15.40;9.23;;;17.00;77.20;;;;;;4931087;28;20294;-90
2022/10/20 02:19:24;;;;;;;19.53;10.33;;;17.00;77.00;;;;;;4930952;29;20198;-89
2022/10/20 02:21:55;;;;;;;20.03;11.53;;;17.00;77.40;;;;;;4931382;28;20233;-90
2022/10/20 02:24:26;;;;;;;15.03;9.20;;;17.00;77.20;;;;;;4934668;28;20297;-89
2022/10/20 02:26:55;;;;;;;17.70;10.10;;;17.00;77.10;;;;;;4938615;28;20235;-90
2022/10/20 02:29:29;;;;;;;12.67;8.20;;;17.10;77.20;;;;;;4925233;28;20210;-89
2022/10/20 02:31:56;;;;;;;15.00;9.63;;;17.00;77.60;;;;;;4934945;29;20243;-89
2022/10/20 02:34:29;;;;;;;19.27;11.27;;;17.00;77.10;;;;;;4932636;28;20705;-90
2022/10/20 02:36:58;;;;;;;17.43;10.40;;;17.00;77.60;;;;;;4931902;28;20258;-91
2022/10/20 02:39:25;;;;;;;17.37;9.30;;;17.00;77.40;;;;;;4926269;28;20248;-89
2022/10/20 02:41:55;;;;;;;14.60;9.07;;;17.00;77.30;;;;;;4918567;28;20667;-91
2022/10/20 02:44:24;;;;;;;18.27;10.27;;;17.00;77.20;;;;;;4933079;29;20221;-89
2022/10/20 02:46:50;;;;;;;13.90;8.77;;;17.00;77.40;;;;;;4931644;29;20310;-90
2022/10/20 02:49:20;;;;;;;14.87;9.30;;;17.00;77.20;;;;;;4933746;29;20240;-92
2022/10/20 02:51:47;;;;;;;12.90;8.77;;;16.90;77.30;;;;;;4931507;28;20230;-92
2022/10/20 02:54:14;;;;;;;13.87;9.23;;;16.90;77.10;;;;;;4929553;28;20233;-90
2022/10/20 02:56:41;;;;;;;22.93;11.80;;;16.90;77.20;;;;;;4915854;28;20287;-90
2022/10/20 02:59:17;;;;;;;16.67;9.70;;;17.00;77.40;;;;;;4931736;28;20300;-90
2022/10/20 03:01:46;;;;;;;19.33;9.90;;;16.90;78.00;;;;;;4932451;29;20234;-90
2022/10/20 03:04:14;;;;;;;18.33;9.80;;;17.00;77.70;;;;;;4990474;28;20209;-89
2022/10/20 03:06:41;;;;;;;18.53;10.33;;;16.90;77.40;;;;;;4915031;28;20274;-90
2022/10/20 03:09:08;;;;;;;16.97;8.90;;;16.90;77.60;;;;;;4932291;28;20212;-88
2022/10/20 03:11:36;;;;;;;17.87;10.43;;;16.90;77.50;;;;;;4931996;28;20259;-90
2022/10/20 03:14:03;;;;;;;16.43;9.90;;;16.90;77.60;;;;;;4933734;29;20237;-91
2022/10/20 03:16:33;;;;;;;20.47;10.87;;;16.80;77.50;;;;;;4930674;28;20293;-90
2022/10/20 03:19:02;;;;;;;14.47;9.07;;;16.80;77.90;;;;;;4931842;28;20299;-89
2022/10/20 03:21:33;;;;;;;15.60;9.63;;;16.80;78.30;;;;;;4993031;28;20938;-91
2022/10/20 03:24:02;;;;;;;17.27;9.60;;;16.80;78.50;;;;;;4922264;28;20325;-90
2022/10/20 03:26:29;;;;;;;20.60;10.17;;;16.80;78.10;;;;;;4931468;28;20216;-90
2022/10/20 03:28:58;;;;;;;14.70;9.17;;;16.80;78.10;;;;;;4959217;28;20693;-89
2022/10/20 03:31:28;;;;;;;26.37;11.47;;;16.80;78.40;;;;;;4925973;29;20783;-90
2022/10/20 03:33:55;;;;;;;14.80;9.40;;;16.80;78.70;;;;;;4930566;28;20200;-90
2022/10/20 03:36:24;;;;;;;17.70;10.23;;;16.70;78.20;;;;;;4933765;28;20206;-92
2022/10/20 03:38:54;;;;;;;19.23;9.27;;;16.80;78.50;;;;;;4933250;28;20698;-90
2022/10/20 03:41:21;;;;;;;15.80;9.70;;;16.80;78.70;;;;;;4932602;29;20296;-89
2022/10/20 03:43:48;;;;;;;15.27;9.23;;;16.70;78.40;;;;;;4929928;29;20271;-87
2022/10/20 03:46:15;;;;;;;14.20;8.57;;;16.70;78.40;;;;;;4932143;29;20262;-91
2022/10/20 03:48:44;;;;;;;17.37;10.10;;;16.70;78.40;;;;;;4930754;28;20258;-88
2022/10/20 03:51:13;;;;;;;15.87;9.80;;;16.70;78.80;;;;;;4930880;28;20330;-91
2022/10/20 03:53:43;;;;;;;17.83;9.73;;;16.70;78.90;;;;;;4930648;28;20215;-89
2022/10/20 03:56:16;;;;;;;17.50;10.20;;;16.70;78.90;;;;;;4930386;28;20216;-89
2022/10/20 03:58:47;;;;;;;16.20;10.53;;;16.70;79.40;;;;;;4922721;28;20306;-89
2022/10/20 04:01:17;;;;;;;18.13;10.67;;;16.60;79.60;;;;;;4929858;29;20264;-90
2022/10/20 04:03:44;;;;;;;15.20;8.90;;;16.70;79.20;;;;;;4929316;28;20745;-89
2022/10/20 04:06:13;;;;;;;17.97;10.30;;;16.60;79.00;;;;;;4933798;28;20218;-89
2022/10/20 04:08:43;;;;;;;17.77;10.27;;;16.60;79.30;;;;;;4935540;29;20235;-90
2022/10/20 04:11:13;;;;;;;12.43;8.73;;;16.60;79.50;;;;;;4931064;29;20748;-90
2022/10/20 04:13:40;;;;;;;17.20;9.27;;;16.60;79.10;;;;;;4930943;28;20650;-89
2022/10/20 04:16:08;;;;;;;18.50;9.53;;;16.60;79.10;;;;;;4929739;28;20269;-89
2022/10/20 04:18:35;;;;;;;16.63;9.93;;;16.60;79.50;;;;;;4930249;29;20234;-90
2022/10/20 04:21:04;;;;;;;12.77;9.07;;;16.60;79.60;;;;;;4939880;28;20304;-89
2022/10/20 04:23:31;;;;;;;17.87;9.93;;;16.60;79.70;;;;;;4927935;28;20666;-89
2022/10/20 04:26:06;;;;;;;17.60;9.57;;;16.60;79.60;;;;;;4927443;28;20275;-89
2022/10/20 04:28:34;;;;;;;16.03;9.97;;;16.50;80.30;;;;;;4925027;29;20200;-89
2022/10/20 04:31:01;;;;;;;13.53;8.70;;;16.50;79.90;;;;;;4929947;28;20228;-89
2022/10/20 04:33:28;;;;;;;14.07;9.23;;;16.50;80.00;;;;;;4931579;29;20235;-90
2022/10/20 04:35:58;;;;;;;16.40;10.10;;;16.50;80.20;;;;;;4931692;29;20225;-90
2022/10/20 04:38:25;;;;;;;16.47;10.30;;;16.50;80.90;;;;;;4931630;29;20282;-89
2022/10/20 04:41:15;;;;;;;21.67;11.30;;;16.50;80.50;;;;;;4930741;28;20231;-89
2022/10/20 04:43:43;;;;;;;13.80;8.93;;;16.50;81.50;;;;;;4945929;28;20209;-90
2022/10/20 04:46:13;;;;;;;17.53;10.60;;;16.50;81.20;;;;;;4928387;28;20309;-90
2022/10/20 04:48:43;;;;;;;17.63;10.00;;;16.50;81.00;;;;;;4927293;29;20260;-89
2022/10/20 04:51:12;;;;;;;18.10;9.90;;;16.50;81.40;;;;;;4928549;28;20264;-91
2022/10/20 04:53:40;;;;;;;24.37;11.47;;;16.50;81.10;;;;;;4924714;28;20212;-90
2022/10/20 04:56:08;;;;;;;21.63;10.60;;;16.50;80.90;;;;;;4926122;28;20207;-90
2022/10/20 04:58:37;;;;;;;16.07;9.30;;;16.50;81.10;;;;;;4926450;29;20237;-90
2022/10/20 05:01:09;;;;;;;15.73;9.10;;;16.50;81.00;;;;;;4927975;28;20307;-91
2022/10/20 05:03:36;;;;;;;19.13;10.10;;;16.50;81.40;;;;;;4928797;28;20208;-89
2022/10/20 05:06:12;;;;;;;17.93;10.10;;;16.50;81.30;;;;;;4926908;28;20210;-90
2022/10/20 05:08:39;;;;;;;20.00;9.70;;;16.50;81.60;;;;;;4928870;28;20304;-89
2022/10/20 05:11:07;;;;;;;15.80;9.43;;;16.50;80.80;;;;;;4931493;28;20232;-88
2022/10/20 05:13:34;;;;;;;16.63;10.37;;;16.50;80.80;;;;;;4929904;28;20311;-90
2022/10/20 05:16:01;;;;;;;22.10;10.40;;;16.50;80.90;;;;;;4933360;28;20735;-90
2022/10/20 05:18:31;;;;;;;16.93;9.60;;;16.50;81.10;;;;;;4931669;28;20650;-90
2022/10/20 05:20:59;;;;;;;22.17;10.70;;;16.50;82.20;;;;;;4929920;28;20639;-89
2022/10/20 05:23:28;;;;;;;18.37;10.57;;;16.50;81.00;;;;;;4922346;29;20749;-89
2022/10/20 05:25:55;;;;;;;25.40;12.43;;;16.50;81.30;;;;;;4922461;28;20214;-89
2022/10/20 05:28:22;;;;;;;21.47;10.10;;;16.50;81.30;;;;;;4927899;29;20213;-90
2022/10/20 05:30:49;;;;;;;16.47;9.67;;;16.50;81.40;;;;;;4929630;28;20234;-89
2022/10/20 05:33:16;;;;;;;18.90;9.90;;;16.50;81.60;;;;;;4928292;28;20213;-89
2022/10/20 05:35:44;;;;;;;19.57;10.10;;;16.50;81.70;;;;;;4930906;28;20266;-89
2022/10/20 05:38:14;;;;;;;19.60;10.23;;;16.50;82.00;;;;;;4930223;28;20259;-90
2022/10/20 05:40:42;;;;;;;18.27;9.57;;;16.50;81.80;;;;;;4931354;29;20226;-89
2022/10/20 05:43:09;;;;;;;19.37;10.23;;;16.50;82.40;;;;;;4929430;28;20233;-90
2022/10/20 05:45:35;;;;;;;23.57;11.43;;;16.50;82.10;;;;;;4925737;28;20717;-90
2022/10/20 05:48:03;;;;;;;15.17;9.77;;;16.50;82.30;;;;;;4929949;29;20262;-90
2022/10/20 05:50:29;;;;;;;17.90;10.53;;;16.50;82.20;;;;;;4929762;28;20931;-89
2022/10/20 05:53:05;;;;;;;15.97;8.90;;;16.50;82.40;;;;;;4929776;28;20827;-90
2022/10/20 05:55:36;;;;;;;18.33;10.97;;;16.50;83.70;;;;;;4927766;29;20673;-90
2022/10/20 05:58:03;;;;;;;15.33;9.40;;;16.50;82.80;;;;;;4921324;28;20275;-90
2022/10/20 06:00:40;;;;;;;19.37;9.97;;;16.50;83.00;;;;;;4922603;28;20205;-90
2022/10/20 06:03:07;;;;;;;17.90;10.10;;;16.50;82.90;;;;;;4929305;28;20587;-90
2022/10/20 06:05:39;;;;;;;15.90;9.43;;;16.50;83.10;;;;;;4939802;29;20240;-91
2022/10/20 06:08:10;;;;;;;15.40;9.23;;;16.50;83.60;;;;;;4940217;28;20275;-90
2022/10/20 06:10:37;;;;;;;15.30;8.63;;;16.50;83.50;;;;;;4937946;28;20647;-90
2022/10/20 06:13:04;;;;;;;14.20;9.10;;;16.50;83.10;;;;;;4931158;28;20200;-89
2022/10/20 06:15:33;;;;;;;12.37;8.60;;;16.60;83.40;;;;;;4939714;28;20242;-91
2022/10/20 06:18:00;;;;;;;19.30;9.53;;;16.60;83.80;;;;;;4939150;28;20215;-90
2022/10/20 06:20:32;;;;;;;21.20;10.33;;;16.60;83.40;;;;;;4935660;28;20264;-89
2022/10/20 06:22:59;;;;;;;16.00;9.43;;;16.60;83.40;;;;;;4930380;29;20203;-90
2022/10/20 06:25:28;;;;;;;20.33;10.43;;;16.60;83.40;;;;;;4929171;28;20794;-90
2022/10/20 06:28:04;;;;;;;16.70;9.00;;;16.60;83.90;;;;;;4933753;28;20210;-90
2022/10/20 06:30:31;;;;;;;24.37;11.73;;;16.60;83.60;;;;;;4926003;28;20212;-89
2022/10/20 06:32:57;;;;;;;20.23;11.47;;;16.60;83.70;;;;;;4928137;28;20270;-91
2022/10/20 06:35:25;;;;;;;20.33;10.50;;;16.60;83.90;;;;;;4928343;28;20673;-90
2022/10/20 06:37:52;;;;;;;20.50;11.67;;;16.60;84.10;;;;;;4929541;28;20305;-89
2022/10/20 06:40:22;;;;;;;20.90;11.00;;;16.70;84.20;;;;;;4926216;28;20299;-90
2022/10/20 06:42:50;;;;;;;21.77;10.73;;;16.70;84.20;;;;;;4926443;28;20251;-89
2022/10/20 06:45:17;;;;;;;24.47;11.47;;;16.70;84.60;;;;;;4924593;28;20583;-90
2022/10/20 06:47:44;;;;;;;13.30;7.60;;;16.70;84.30;;;;;;4930239;29;20297;-91
2022/10/20 06:50:11;;;;;;;17.73;9.20;;;16.70;84.40;;;;;;4929737;29;20585;-90
2022/10/20 06:52:38;;;;;;;13.73;8.67;;;16.70;85.00;;;;;;4929178;29;20291;-90
2022/10/20 06:55:07;;;;;;;16.07;8.63;;;16.70;85.20;;;;;;4925465;28;20214;-88
2022/10/20 06:57:34;;;;;;;22.87;10.80;;;16.70;85.60;;;;;;4922097;28;20201;-89
2022/10/20 07:00:05;;;;;;;19.37;10.70;;;16.70;85.40;;;;;;4928117;28;20205;-89
2022/10/20 07:02:32;;;;;;;17.40;9.50;;;16.70;86.90;;;;;;4933526;28;20239;-89
2022/10/20 07:04:59;;;;;;;15.53;9.20;;;16.70;86.10;;;;;;4939642;28;20314;-88
2022/10/20 07:07:26;;;;;;;19.07;9.90;;;16.80;86.70;;;;;;4936524;28;20293;-88
2022/10/20 07:09:54;;;;;;;16.50;9.73;;;16.70;86.90;;;;;;4925281;29;20679;-88
2022/10/20 07:12:21;;;;;;;21.67;10.70;;;16.80;87.60;;;;;;4933884;28;20340;-88
2022/10/20 07:14:48;;;;;;;19.20;9.23;;;16.80;87.30;;;;;;4927938;29;20213;-88
2022/10/20 07:17:18;;;;;;;17.80;9.77;;;16.80;87.70;;;;;;4934364;28;20243;-94
2022/10/20 07:19:45;;;;;;;16.00;8.60;;;16.80;88.50;;;;;;4930807;28;20216;-95
2022/10/20 07:22:17;;;;;;;19.03;7.43;;;16.80;88.00;;;;;;4931328;28;20201;-93
2022/10/20 07:24:44;;;;;;;15.90;8.77;;;16.80;88.50;;;;;;4929080;29;20267;-88
2022/10/20 07:27:11;;;;;;;15.80;9.13;;;16.90;88.40;;;;;;4929172;28;20305;-89
2022/10/20 07:29:45;;;;;;;14.90;9.20;;;16.90;88.70;;;;;;4927548;28;20299;-89
2022/10/20 07:32:17;;;;;;;13.10;8.63;;;17.00;89.70;;;;;;4927649;29;20233;-89
2022/10/20 07:34:50;;;;;;;16.80;9.40;;;17.00;89.40;;;;;;4937922;28;20339;-93
2022/10/20 07:37:21;;;;;;;19.00;9.67;;;17.00;90.50;;;;;;4958436;28;20233;-89
2022/10/20 07:39:49;;;;;;;16.53;9.80;;;17.10;89.70;;;;;;4949111;29;20216;-90
2022/10/20 07:42:17;;;;;;;15.87;9.03;;;17.10;90.00;;;;;;4938780;28;20217;-89
2022/10/20 07:44:56;;;;;;;9.20;7.90;;;17.10;90.00;;;;;;4939121;28;20212;-93
2022/10/20 07:48:09;;;;;;;8.63;6.97;;;17.10;90.50;;;;;;4937383;28;20281;-96
2022/10/20 07:53:07;;;;;;;16.47;8.67;;;17.10;90.00;;;;;;4943989;28;20235;-90
2022/10/20 07:58:04;;;;;;;14.67;8.90;;;17.20;90.40;;;;;;5330414;22;20290;-91
2022/10/20 08:00:32;;;;;;;14.80;8.83;;;17.20;90.60;;;;;;4957888;28;20213;-91
2022/10/20 08:03:00;;;;;;;14.73;8.93;;;17.20;90.70;;;;;;4956989;28;20215;-91
2022/10/20 08:05:35;;;;;;;12.97;8.23;;;17.30;91.00;;;;;;4953177;29;20197;-92
2022/10/20 08:08:02;;;;;;;18.70;9.57;;;17.30;91.20;;;;;;4951684;29;20202;-91
2022/10/20 08:10:31;;;;;;;15.17;9.43;;;17.40;91.00;;;;;;4942142;29;20213;-91
2022/10/20 08:13:00;;;;;;;13.17;8.37;;;17.40;91.50;;;;;;4945244;29;20241;-91
2022/10/20 08:15:29;;;;;;;16.07;9.40;;;17.40;91.60;;;;;;4947055;29;20239;-92
2022/10/20 08:18:03;;;;;;;16.00;8.43;;;17.40;91.70;;;;;;4960888;28;20230;-92
2022/10/20 08:20:40;;;;;;;14.17;8.53;;;17.40;91.50;;;;;;4942810;29;20206;-92
2022/10/20 08:23:13;;;;;;;14.70;8.30;;;17.50;92.10;;;;;;4946063;28;20200;-92
2022/10/20 08:25:45;;;;;;;15.87;9.10;;;17.50;91.90;;;;;;4940800;28;20204;-92
2022/10/20 08:28:14;;;;;;;17.10;8.87;;;17.60;92.00;;;;;;4949229;28;20277;-93
2022/10/20 08:30:41;;;;;;;14.10;8.67;;;17.60;91.90;;;;;;4971601;28;20220;-93
2022/10/20 08:33:10;;;;;;;12.60;8.27;;;17.60;91.50;;;;;;4968399;28;20299;-93
2022/10/20 08:35:40;;;;;;;14.07;8.83;;;17.70;91.80;;;;;;4963123;28;20205;-93
2022/10/20 08:38:08;;;;;;;14.93;8.80;;;17.70;91.60;;;;;;5030237;28;20226;-93
2022/10/20 08:40:41;;;;;;;16.53;8.83;;;17.80;91.50;;;;;;5049885;28;20203;-93
2022/10/20 08:43:16;;;;;;;17.97;9.63;;;17.80;91.80;;;;;;5044558;28;20204;-94
2022/10/20 08:45:45;;;;;;;11.80;8.00;;;17.80;91.80;;;;;;5050848;28;20203;-93
2022/10/20 08:48:20;;;;;;;14.03;8.83;;;17.90;91.50;;;;;;5046231;28;20210;-92
2022/10/20 08:50:50;;;;;;;13.53;8.73;;;17.90;91.60;;;;;;5043543;28;20201;-91
2022/10/20 08:53:20;;;;;;;15.33;8.93;;;17.90;91.50;;;;;;5040855;28;20221;-91
2022/10/20 08:55:48;;;;;;;14.63;9.03;;;18.00;91.60;;;;;;5038915;28;20210;-92
2022/10/20 08:58:20;;;;;;;19.27;10.23;;;18.00;91.60;;;;;;5039285;28;20207;-91
2022/10/20 09:00:48;;;;;;;21.83;11.00;;;18.10;91.90;;;;;;5036234;28;20199;-93
2022/10/20 09:03:22;;;;;;;12.13;8.57;;;18.10;91.70;;;;;;5039812;28;20544;-93
2022/10/20 09:05:55;;;;;;;20.90;9.60;;;18.10;91.80;;;;;;5043771;28;20287;-92
2022/10/20 09:08:27;;;;;;;14.40;8.43;;;18.10;92.40;;;;;;5041705;28;20208;-92
2022/10/20 09:10:58;;;;;;;15.67;9.00;;;18.20;92.10;;;;;;5036277;28;20259;-92
2022/10/20 09:13:32;;;;;;;16.60;8.07;;;18.20;91.90;;;;;;5040362;28;20242;-92
2022/10/20 09:16:03;;;;;;;24.10;11.47;;;18.20;92.20;;;;;;5028477;28;20211;-91
2022/10/20 09:18:33;;;;;;;15.33;8.90;;;18.30;92.10;;;;;;5023122;28;20295;-90
2022/10/20 09:21:04;;;;;;;18.10;9.57;;;18.20;92.00;;;;;;5033187;28;20224;-94
2022/10/20 09:23:37;;;;;;;17.80;9.20;;;18.30;92.00;;;;;;5030076;28;20217;-92
2022/10/20 09:26:04;;;;;;;20.07;10.43;;;18.30;92.10;;;;;;5011541;28;20205;-93
2022/10/20 09:28:34;;;;;;;17.10;9.93;;;18.30;91.80;;;;;;5025518;28;20218;-92
2022/10/20 09:31:01;;;;;;;16.43;9.17;;;18.30;92.20;;;;;;5022925;28;20237;-93
2022/10/20 09:33:31;;;;;;;14.57;8.67;;;18.30;92.10;;;;;;5012792;28;20356;-92
2022/10/20 09:36:04;;;;;;;15.97;8.53;;;18.30;92.60;;;;;;5027730;28;20217;-92
2022/10/20 09:38:36;;;;;;;13.83;8.70;;;18.40;93.00;;;;;;5025493;28;20253;-93
2022/10/20 09:41:16;;;;;;;15.57;8.03;;;18.40;93.00;;;;;;5017848;28;20214;-94
2022/10/20 09:43:52;;;;;;;17.00;9.33;;;18.40;93.30;;;;;;5021891;28;20212;-92
2022/10/20 09:46:26;;;;;;;14.97;8.73;;;18.50;93.40;;;;;;5032329;28;20203;-92
2022/10/20 09:48:55;;;;;;;15.00;8.50;;;18.50;93.40;;;;;;5027485;28;20230;-93
2022/10/20 09:51:26;;;;;;;16.07;10.13;;;18.50;93.40;;;;;;5018625;28;20211;-91
2022/10/20 09:53:57;;;;;;;14.17;9.03;;;18.50;93.70;;;;;;5023268;28;20243;-92
2022/10/20 09:56:30;;;;;;;17.77;11.00;;;18.60;93.90;;;;;;5016377;28;20211;-91
2022/10/20 09:59:02;;;;;;;17.33;9.57;;;18.60;94.40;;;;;;5013155;28;20287;-92
2022/10/20 10:01:30;;;;;;;19.23;10.37;;;18.60;94.50;;;;;;5033333;28;21059;-92
2022/10/20 10:04:00;;;;;;;19.53;11.03;;;18.70;94.10;;;;;;5024526;28;20288;-91
2022/10/20 10:06:31;;;;;;;16.23;9.10;;;18.70;94.50;;;;;;5035433;28;20246;-90
2022/10/20 10:09:00;;;;;;;17.77;9.90;;;18.80;95.00;;;;;;5019088;28;20277;-91
2022/10/20 10:11:33;;;;;;;20.33;10.43;;;18.80;94.80;;;;;;5031068;28;20281;-91
2022/10/20 10:14:03;;;;;;;14.93;9.57;;;19.00;95.40;;;;;;5018828;28;20236;-92
2022/10/20 10:16:41;;;;;;;20.17;10.70;;;19.00;95.70;;;;;;5011593;28;20287;-91
2022/10/20 10:19:15;;;;;;;17.93;9.37;;;19.10;95.80;;;;;;5011874;28;20213;-92
2022/10/20 10:21:45;;;;;;;18.90;9.77;;;19.20;95.60;;;;;;5012051;28;20755;-90
2022/10/20 10:24:38;;;;;;;15.83;8.77;;;19.30;96.00;;;;;;5032727;28;20205;-91
2022/10/20 10:27:07;;;;;;;17.83;9.07;;;19.40;96.70;;;;;;5013635;28;20247;-92
2022/10/20 10:29:36;;;;;;;15.77;9.07;;;19.50;95.80;;;;;;5026151;28;20250;-91
2022/10/20 10:32:14;;;;;;;18.37;10.20;;;19.60;96.50;;;;;;5020776;28;20240;-91
2022/10/20 10:34:59;;;;;;;15.50;8.20;;;19.80;96.70;;;;;;5029605;28;20276;-91
2022/10/20 10:37:28;;;;;;;16.40;9.10;;;19.90;96.10;;;;;;5033023;28;20221;-91
2022/10/20 10:39:56;;;;;;;11.07;8.20;;;20.10;95.40;;;;;;5046798;28;20219;-90
2022/10/20 10:43:01;;;;;;;14.43;7.80;;;20.20;95.50;;;;;;5046699;28;20197;-91
2022/10/20 10:45:49;;;;;;;13.87;7.57;;;20.40;95.50;;;;;;5026272;28;20229;-91
2022/10/20 10:48:44;;;;;;;10.37;7.23;;;20.50;95.00;;;;;;5032068;28;20299;-91
2022/10/20 10:51:20;;;;;;;10.57;6.73;;;20.60;94.60;;;;;;5030735;28;20201;-90
2022/10/20 10:53:59;;;;;;;12.60;7.50;;;20.70;94.60;;;;;;5050195;28;20216;-90
2022/10/20 10:56:36;;;;;;;8.20;6.70;;;20.80;95.40;;;;;;5046547;28;20209;-90
2022/10/20 10:59:10;;;;;;;15.13;8.43;;;20.90;94.60;;;;;;5029655;28;20197;-91
2022/10/20 11:01:56;;;;;;;9.90;7.17;;;21.00;94.30;;;;;;5036652;28;20940;-91
2022/10/20 11:04:43;;;;;;;8.83;6.50;;;21.10;94.20;;;;;;5026979;28;20185;-91
2022/10/20 11:07:22;;;;;;;15.13;8.03;;;21.20;93.60;;;;;;5023346;28;20599;-94
2022/10/20 11:10:02;;;;;;;9.00;7.03;;;21.40;93.20;;;;;;5039716;28;20208;-90
2022/10/20 11:12:53;;;;;;;13.07;7.33;;;21.50;93.00;;;;;;5044727;28;20277;-91
2022/10/20 11:15:35;;;;;;;14.63;8.03;;;21.50;92.20;;;;;;5009160;28;20202;-90
2022/10/20 11:18:16;;;;;;;9.97;6.20;;;21.60;91.90;;;;;;5012597;28;20210;-93
2022/10/20 11:20:57;;;;;;;10.47;6.37;;;21.70;91.60;;;;;;5052035;28;20232;-91
2022/10/20 11:24:02;;;;;;;9.03;6.33;;;21.70;91.50;;;;;;5060147;28;20192;-90
2022/10/20 11:26:33;;;;;;;10.73;5.73;;;21.70;91.00;;;;;;5036916;28;20220;-91
2022/10/20 11:29:04;;;;;;;9.10;6.10;;;21.70;90.70;;;;;;5049455;28;20202;-91
2022/10/20 11:31:36;;;;;;;12.83;7.30;;;21.70;90.60;;;;;;5050297;28;20213;-90
2022/10/20 11:34:14;;;;;;;10.37;6.47;;;21.70;90.30;;;;;;5046427;28;20216;-91
2022/10/20 11:36:45;;;;;;;21.27;9.23;;;21.70;90.40;;;;;;5030644;28;20227;-92
2022/10/20 11:39:20;;;;;;;10.80;6.03;;;21.70;90.40;;;;;;5024657;28;20240;-93
2022/10/20 11:41:52;;;;;;;14.43;8.67;;;21.70;90.40;;;;;;5034070;28;20688;-92
2022/10/20 11:44:25;;;;;;;17.83;9.13;;;21.60;90.40;;;;;;5023555;28;20231;-90
2022/10/20 11:46:57;;;;;;;13.77;8.17;;;21.60;90.40;;;;;;5044236;28;20985;-89
2022/10/20 11:49:27;;;;;;;13.50;7.73;;;21.60;90.30;;;;;;5039028;28;20204;-91
2022/10/20 11:52:15;;;;;;;14.00;7.60;;;21.60;90.10;;;;;;5040827;28;20251;-92
2022/10/20 11:55:05;;;;;;;11.90;7.80;;;21.60;90.40;;;;;;5035086;28;20244;-93
2022/10/20 11:57:44;;;;;;;13.13;7.83;;;21.60;90.50;;;;;;5035822;28;20240;-90
2022/10/20 12:00:26;;;;;;;13.60;7.50;;;21.60;90.50;;;;;;5033223;28;20205;-95
2022/10/20 12:03:40;;;;;;;16.77;7.73;;;21.60;90.70;;;;;;5036152;28;20205;-90
2022/10/20 12:06:36;;;;;;;12.23;6.67;;;21.60;90.90;;;;;;5045120;28;20269;-92
2022/10/20 12:09:32;;;;;;;8.73;6.03;;;21.70;90.60;;;;;;5051599;28;20219;-91
2022/10/20 12:12:05;;;;;;;12.13;7.20;;;21.70;90.00;;;;;;5044342;28;20208;-92
2022/10/20 12:14:37;;;;;;;12.37;6.53;;;21.80;89.80;;;;;;5045614;28;20239;-89
2022/10/20 12:17:20;;;;;;;11.77;6.83;;;21.80;88.90;;;;;;5039062;28;20198;-90
2022/10/20 12:19:50;;;;;;;16.03;7.93;;;21.80;89.00;;;;;;5030997;28;20282;-88
2022/10/20 12:22:39;;;;;;;16.03;7.30;;;21.90;88.40;;;;;;5033314;28;20202;-91
2022/10/20 12:25:34;;;;;;;8.77;6.10;;;21.90;87.70;;;;;;5048079;28;20222;-89
2022/10/20 12:28:32;;;;;;;10.10;6.27;;;22.00;87.50;;;;;;5044536;28;20574;-90
2022/10/20 12:31:00;;;;;;;13.97;6.30;;;22.00;88.40;;;;;;5046995;28;20274;-90
2022/10/20 12:33:42;;;;;;;11.50;5.93;;;22.00;88.50;;;;;;5052842;28;20255;-91
2022/10/20 12:36:26;;;;;;;13.90;6.10;;;22.10;86.90;;;;;;5049481;28;20227;-89
2022/10/20 12:39:08;;;;;;;13.70;6.03;;;22.20;86.90;;;;;;5033377;28;20210;-89
2022/10/20 12:41:41;;;;;;;14.27;6.63;;;22.20;86.70;;;;;;5036476;28;20199;-90
2022/10/20 12:44:16;;;;;;;12.37;6.17;;;22.20;86.20;;;;;;5037693;28;20304;-93
2022/10/20 12:46:53;;;;;;;18.37;6.23;;;22.30;85.40;;;;;;5038350;28;20203;-90
2022/10/20 12:49:25;;;;;;;14.13;5.90;;;22.30;84.90;;;;;;5034954;28;20731;-90
2022/10/20 12:51:55;;;;;;;13.20;6.27;;;22.30;84.70;;;;;;5036276;28;20960;-90
2022/10/20 12:54:29;;;;;;;25.47;9.73;;;22.40;84.30;;;;;;5030429;28;20226;-92
2022/10/20 12:57:00;;;;;;;12.37;6.40;;;22.40;83.70;;;;;;5028598;28;20631;-90
2022/10/20 12:59:45;;;;;;;10.17;5.83;;;22.50;85.30;;;;;;5032474;28;20280;-91
2022/10/20 13:02:52;;;;;;;11.47;5.37;;;22.50;85.10;;;;;;5036063;28;20302;-90
2022/10/20 13:05:51;;;;;;;10.80;5.00;;;22.60;84.50;;;;;;5033972;28;20242;-91